Gilbert, Arizona
Current Conditions -  °F | °C
As of 3:47 PM on Monday 24 Nov 2014 (Local Time) from KCHD Reporting Station
Few Clouds Few Clouds  
Wind Chill: 68°   Ceiling: Unl
Heat Index: 68°   Visibility: 40mi
Dew Point:   Wind: 7mph
Humidity: 10%   Direction: 250°WSW
Pressure: 30.16"   Gusts: NA
Location:  33.33°N, 111.78°W
Report Text: KCHD 242247Z 25006KT 40SM FEW200 20/M13 A3016
Loading
Personal Weather Stations






























Interactive Weather Map New forecast layout! Learn more

10-Day Weather Forecast

Advertisements
Track Severe Weather on mobile